Terminal Aerodrome Forecast
Issued by NWS

Home | Current Version | Previous Version | Text Only | Print | Product List | Glossary On
Versions: 1 2 3 4 5 6 7 8 9 10 11 12
848
FTUS43 KDTX 232320
TAFMBS
TAF
KMBS 232320Z 2400/2424 14006KT P6SM OVC060
     FM240500 16009KT 3SM -RA OVC030 WS020/22040KT
     FM240800 18007KT P6SM BKN035 WS020/23045KT
     FM241400 23012G20KT P6SM OVC022
     FM241900 25011KT P6SM OVC012=

USA.gov is the U.S. government's official web portal to all federal, state and local government web resources and services.